Time;durP1;ratioP1;P1;durP2;ratioP2;P2;SDS_P1;SDS_P2;PMS_P1;PMS_P2;Temp;Humidity;BMP_temperature;BMP_pressure;BME280_temperature;BME280_humidity;BME280_pressure;Samples;Min_cycle;Max_cycle;Signal;HPM_P1;HPM_P2
2022/12/15 00:38:46;;;;;;;7.15;1.40;;;;;;;;;;5112533;28;20187;-69
2022/12/15 00:41:13;;;;;;;7.20;1.48;;;;;;;;;;5112484;28;20043;-68
2022/12/15 00:43:39;;;;;;;8.88;1.55;;;;;;;;;;5112138;28;20428;-69
2022/12/15 00:48:51;;;;;;;5.88;1.55;;;;;;;;;;5112281;28;20051;-68
2022/12/15 00:51:17;;;;;;;4.10;1.48;;;;;;;;;;5112228;28;20048;-68
2022/12/15 01:21:12;;;;;;;6.45;1.92;;;;;;;;;;5112114;28;20043;-69
2022/12/15 01:23:41;;;;;;;5.88;2.45;;;;;;;;;;5111991;28;20047;-69
2022/12/15 01:26:07;;;;;;;5.55;1.83;;;;;;;;;;5111801;28;20188;-69
2022/12/15 01:28:33;;;;;;;;;;;;;;;;;;5112095;28;20472;-69
2022/12/15 01:30:59;;;;;;;3.55;1.67;;;;;;;;;;5111534;28;19978;-69
2022/12/15 01:33:25;;;;;;;6.63;1.88;;;;;;;;;;5110582;28;20501;-69
2022/12/15 01:35:58;;;;;;;7.53;1.90;;;;;;;;;;5111875;28;20054;-68
2022/12/15 01:38:25;;;;;;;6.38;2.20;;;;;;;;;;5110343;28;20388;-69
2022/12/15 01:40:55;;;;;;;7.53;2.20;;;;;;;;;;5111495;28;20090;-69
2022/12/15 01:43:24;;;;;;;8.52;2.45;;;-1.60;99.90;;;;;;5113194;28;20504;-68
2022/12/15 01:46:09;;;;;;;6.50;2.00;;;;;;;;;;5115586;28;20047;-69
2022/12/15 01:48:35;;;;;;;11.02;2.65;;;;;;;;;;5115556;28;20373;-69
2022/12/15 01:51:30;;;;;;;7.80;2.72;;;;;;;;;;5115460;28;20100;-69
2022/12/15 01:53:59;;;;;;;8.80;2.78;;;;;;;;;;5108982;28;20055;-69
2022/12/15 01:56:26;;;;;;;9.93;2.65;;;;;;;;;;5115394;28;20107;-69
2022/12/15 01:58:54;;;;;;;10.02;2.35;;;;;;;;;;5115343;28;20160;-69
2022/12/15 02:01:20;;;;;;;6.60;2.33;;;;;;;;;;5115290;28;20079;-69
2022/12/15 02:03:47;;;;;;;9.60;2.40;;;;;;;;;;5114245;28;20055;-69
2022/12/15 02:06:13;;;;;;;8.75;2.42;;;;;;;;;;5115200;28;20051;-70
2022/12/15 02:08:42;;;;;;;10.23;2.10;;;;;;;;;;5113851;28;20048;-69
2022/12/15 02:11:14;;;;;;;7.25;2.10;;;;;;;;;;5114973;28;20196;-69
2022/12/15 02:13:48;;;;;;;5.90;1.90;;;;;;;;;;5115089;28;20088;-69
2022/12/15 02:16:20;;;;;;;9.00;2.17;;;;;;;;;;5114774;28;20483;-69
2022/12/15 02:19:05;;;;;;;9.35;2.05;;;;;;;;;;5114724;28;20480;-69
2022/12/15 02:21:36;;;;;;;7.55;2.08;;;;;;;;;;5114908;28;20046;-69
2022/12/15 02:24:29;;;;;;;5.05;2.38;;;;;;;;;;5114468;28;20451;-69
2022/12/15 02:27:04;;;;;;;4.15;2.13;;;;;;;;;;5114433;28;20055;-69
2022/12/15 02:29:58;;;;;;;5.57;2.85;;;;;;;;;;5114990;28;20043;-69
2022/12/15 02:32:30;;;;;;;6.63;1.80;;;-1.50;99.90;;;;;;5113458;28;20059;-70
2022/12/15 02:35:02;;;;;;;6.53;1.85;;;;;;;;;;5114790;28;20122;-69
2022/12/15 02:37:31;;;;;;;4.57;1.95;;;;;;;;;;5112911;28;20139;-68
2022/12/15 02:39:57;;;;;;;7.97;1.90;;;;;;;;;;5114566;28;20055;-69
2022/12/15 02:42:24;;;;;;;4.68;1.70;;;;;;;;;;5114577;28;20463;-69
2022/12/15 02:44:53;;;;;;;9.52;2.72;;;;;;;;;;5114510;28;20091;-69
2022/12/15 02:47:38;;;;;;;7.43;2.30;;;;;;;;;;5114358;28;20437;-69
2022/12/15 02:50:07;;;;;;;4.90;1.83;;;;;;;;;;5114329;28;20069;-68
2022/12/15 02:52:39;;;;;;;11.73;2.10;;;;;;;;;;5113998;28;20044;-69
2022/12/15 02:55:25;;;;;;;11.82;2.50;;;;;;;;;;5113325;28;20527;-69
2022/12/15 02:57:54;;;;;;;4.07;2.05;;;;;;;;;;5112678;27;20059;-69
2022/12/15 03:00:21;;;;;;;7.32;3.20;;;;;;;;;;5114140;28;20047;-69
2022/12/15 03:02:49;;;;;;;3.42;1.27;;;;;;;;;;5114058;28;20150;-69
2022/12/15 03:05:16;;;;;;;5.80;1.33;;;;;;;;;;5114060;28;20089;-69
2022/12/15 03:07:42;;;;;;;;;;;;;;;;;;5114109;28;20051;-71
2022/12/15 03:10:09;;;;;;;9.18;1.85;;;;;;;;;;5113882;28;19943;-68
2022/12/15 03:12:35;;;;;;;5.90;1.05;;;;;;;;;;5113903;28;20044;-68
2022/12/15 03:15:01;;;;;;;3.00;0.70;;;;;;;;;;5112879;28;20047;-68
2022/12/15 03:17:27;;;;;;;7.28;1.00;;;;;;;;;;5113881;28;20433;-68
2022/12/15 03:19:53;;;;;;;6.53;0.88;;;;;;;;;;5113521;28;20487;-68
2022/12/15 03:22:19;;;;;;;3.78;0.70;;;;;;;;;;5112431;28;20134;-69
2022/12/15 03:24:45;;;;;;;6.03;0.73;;;;;;;;;;5113733;28;20052;-68
2022/12/15 03:27:11;;;;;;;3.25;0.70;;;;;;;;;;5113402;27;20043;-68
2022/12/15 03:29:37;;;;;;;6.25;1.00;;;;;;;;;;5113650;28;20131;-68
2022/12/15 03:32:03;;;;;;;6.13;1.80;;;;;;;;;;5113694;28;20055;-70
2022/12/15 03:34:29;;;;;;;3.05;0.88;;;;;;;;;;5113533;28;20054;-68
2022/12/15 03:36:55;;;;;;;8.07;1.23;;;;;;;;;;5111774;28;20215;-70
2022/12/15 03:39:21;;;;;;;9.43;1.00;;;0.50;99.90;;;;;;5113420;28;20051;-69
2022/12/15 03:41:47;;;;;;;3.30;0.97;;;;;;;;;;5113463;28;20054;-68
2022/12/15 03:44:13;;;;;;;4.78;1.92;;;;;;;;;;5112316;28;20296;-68
2022/12/15 03:46:39;;;;;;;8.07;1.27;;;;;;;;;;5113371;28;20047;-69
2022/12/15 03:49:05;;;;;;;7.40;1.40;;;;;;;;;;5113189;28;20065;-68
2022/12/15 03:51:31;;;;;;;11.15;1.45;;;;;;;;;;5113024;27;20054;-68
2022/12/15 03:53:58;;;;;;;9.93;1.75;;;;;;;;;;5113162;28;20070;-68
2022/12/15 03:56:24;;;;;;;5.70;1.10;;;;;;;;;;5113178;28;20050;-68
2022/12/15 03:58:50;;;;;;;7.57;1.10;;;;;;;;;;5113227;28;20055;-69
2022/12/15 04:01:25;;;;;;;9.88;1.40;;;;;;;;;;5113049;28;20134;-69
2022/12/15 04:03:51;;;;;;;4.80;1.20;;;;;;;;;;5112913;28;20134;-69
2022/12/15 04:06:17;;;;;;;3.92;1.55;;;;;;;;;;5112020;28;20043;-68
2022/12/15 04:08:43;;;;;;;6.70;1.30;;;;;;;;;;5111680;28;20108;-68
2022/12/15 04:11:09;;;;;;;5.70;0.90;;;;;;;;;;5112825;28;20044;-68
2022/12/15 04:13:35;;;;;;;6.97;1.20;;;;;;;;;;5112895;28;20046;-68
2022/12/15 04:16:02;;;;;;;10.32;1.30;;;;;;;;;;5112816;28;20055;-70
2022/12/15 04:18:28;;;;;;;4.70;1.10;;;;;;;;;;5094500;28;20048;-68
2022/12/15 04:20:55;;;;;;;8.32;2.03;;;;;;;;;;5112474;28;20039;-68
2022/12/15 04:23:21;;;;;;;6.97;1.45;;;;;;;;;;5112886;28;20499;-70
2022/12/15 05:32:01;;;;;;;4.38;2.40;;;;;;;;;;5115372;28;20560;-68
2022/12/15 05:34:29;;;;;;;6.13;1.85;;;;;;;;;;5115640;28;20499;-69
2022/12/15 05:36:56;;;;;;;12.20;2.08;;;;;;;;;;5115429;28;20130;-68
2022/12/15 05:39:22;;;;;;;6.53;2.20;;;;;;;;;;5115863;27;20415;-70
2022/12/15 05:41:49;;;;;;;5.15;2.03;;;;;;;;;;5115675;28;20047;-69
2022/12/15 05:44:16;;;;;;;;;;;;;;;;;;5116008;28;20088;-68
2022/12/15 05:46:42;;;;;;;10.98;1.77;;;;;;;;;;5115404;28;19923;-70
2022/12/15 05:49:09;;;;;;;8.68;2.15;;;;;;;;;;5115476;28;20083;-69
2022/12/15 05:51:37;;;;;;;7.03;1.77;;;;;;;;;;5114463;28;20047;-69
2022/12/15 05:54:03;;;;;;;8.50;1.98;;;;;;;;;;5115455;28;20055;-68
2022/12/15 05:56:29;;;;;;;8.27;2.13;;;;;;;;;;5114441;28;20055;-68
2022/12/15 05:58:56;;;;;;;4.80;1.90;;;;;;;;;;5115361;28;20122;-68
2022/12/15 06:01:23;;;;;;;9.82;2.72;;;;;;;;;;5115078;28;20058;-70
2022/12/15 06:03:49;;;;;;;5.93;2.25;;;;;;;;;;5114987;28;20403;-68
2022/12/15 06:06:15;;;;;;;7.72;2.10;;;;;;;;;;5113945;28;20048;-68
2022/12/15 06:08:42;;;;;;;14.13;3.30;;;;;;;;;;5115161;28;20092;-68
2022/12/15 06:11:10;;;;;;;8.23;2.10;;;;;;;;;;5115103;28;20337;-69
2022/12/15 06:13:36;;;;;;;7.50;2.05;;;;;;;;;;5115111;28;20095;-68
2022/12/15 06:16:04;;;;;;;3.45;1.92;;;;;;;;;;5114979;28;20051;-72
2022/12/15 06:18:40;;;;;;;9.38;1.90;;;;;;;;;;5115224;28;20135;-68
2022/12/15 06:21:14;;;;;;;14.10;2.03;;;;;;;;;;5115188;28;20044;-68
2022/12/15 06:23:41;;;;;;;12.98;2.45;;;-0.50;99.90;;;;;;5114939;28;20276;-69
2022/12/15 06:26:12;;;;;;;5.05;2.30;;;;;;;;;;5113787;28;20735;-68
2022/12/15 06:28:38;;;;;;;11.90;1.98;;;;;;;;;;5114869;28;20051;-69
2022/12/15 06:31:05;;;;;;;;;;;-0.40;99.90;;;;;;5113877;28;20131;-69
2022/12/15 06:33:31;;;;;;;6.60;2.00;;;;;;;;;;5096605;28;19920;-68
2022/12/15 06:35:58;;;;;;;4.88;2.28;;;;;;;;;;5114672;28;20116;-68
2022/12/15 06:38:27;;;;;;;11.07;1.95;;;;;;;;;;5114113;28;20411;-69
2022/12/15 06:40:57;;;;;;;9.90;1.80;;;;;;;;;;5114587;28;20052;-68
2022/12/15 06:43:23;;;;;;;8.98;1.80;;;;;;;;;;5114466;27;20184;-69
2022/12/15 06:45:50;;;;;;;9.13;1.63;;;;;;;;;;5114289;28;20139;-69
2022/12/15 06:48:16;;;;;;;10.75;2.00;;;;;;;;;;5114452;27;20055;-68
2022/12/15 06:50:44;;;;;;;7.95;1.80;;;;;;;;;;5114296;28;20082;-68
2022/12/15 06:53:10;;;;;;;12.68;2.40;;;;;;;;;;5114361;28;20374;-69
2022/12/15 06:55:36;;;;;;;;;;;;;;;;;;5114661;28;20047;-69
2022/12/15 06:58:02;;;;;;;10.32;2.40;;;;;;;;;;5114279;28;20310;-69
2022/12/15 07:00:29;;;;;;;12.10;3.42;;;;;;;;;;5095994;28;20040;-69
2022/12/15 07:02:55;;;;;;;9.38;1.92;;;;;;;;;;5114165;28;20054;-68
2022/12/15 07:05:21;;;;;;;12.52;2.13;;;;;;;;;;5114151;28;20048;-69
2022/12/15 07:07:47;;;;;;;11.32;2.10;;;;;;;;;;5114054;28;20047;-69
2022/12/15 07:10:13;;;;;;;5.93;1.98;;;;;;;;;;5113965;27;20100;-71
2022/12/15 07:12:39;;;;;;;9.25;2.22;;;;;;;;;;5112735;28;20127;-68
2022/12/15 07:15:06;;;;;;;9.77;2.40;;;;;;;;;;5113583;28;20047;-69
2022/12/15 07:17:33;;;;;;;13.27;2.63;;;;;;;;;;5113864;27;20087;-69
2022/12/15 07:19:59;;;;;;;7.82;2.38;;;;;;;;;;5113734;28;20046;-68
2022/12/15 07:22:27;;;;;;;8.88;2.55;;;-0.40;99.90;;;;;;5113728;28;20044;-68
2022/12/15 07:24:53;;;;;;;12.43;2.85;;;;;;;;;;5113663;28;20047;-69
2022/12/15 07:27:19;;;;;;;11.60;2.95;;;;;;;;;;5113650;28;20052;-69
2022/12/15 07:29:45;;;;;;;6.47;2.60;;;;;;;;;;5112164;28;20075;-68
2022/12/15 07:32:11;;;;;;;11.63;2.50;;;;;;;;;;5113587;28;20047;-68
2022/12/15 07:34:37;;;;;;;12.43;2.67;;;;;;;;;;5113520;28;20054;-69
2022/12/15 07:37:04;;;;;;;8.75;1.98;;;;;;;;;;5113202;28;20051;-69
2022/12/15 07:39:30;;;;;;;8.00;2.20;;;;;;;;;;5111917;28;20496;-69
2022/12/15 07:41:56;;;;;;;6.55;2.30;;;;;;;;;;5112957;28;20090;-68
2022/12/15 07:44:22;;;;;;;9.85;2.20;;;;;;;;;;5113346;28;20048;-68
2022/12/15 07:46:48;;;;;;;11.70;2.00;;;;;;;;;;5113382;28;20063;-69
2022/12/15 07:49:16;;;;;;;11.02;2.17;;;-0.40;99.90;;;;;;5113135;28;20047;-69
2022/12/15 07:51:42;;;;;;;7.95;2.80;;;;;;;;;;5113192;28;20055;-68
2022/12/15 07:54:11;;;;;;;9.95;1.90;;;;;;;;;;5113105;28;20052;-69
2022/12/15 07:56:38;;;;;;;7.22;2.25;;;;;;;;;;5112820;28;20051;-69
2022/12/15 07:59:05;;;;;;;7.70;2.17;;;;;;;;;;5111682;28;20100;-70
2022/12/15 08:01:31;;;;;;;7.85;2.00;;;;;;;;;;5113024;28;20079;-68
2022/12/15 08:03:57;;;;;;;;;;;;;;;;;;5113455;28;20055;-69
2022/12/15 08:06:23;;;;;;;7.65;2.03;;;;;;;;;;5113011;28;19919;-69
2022/12/15 08:08:49;;;;;;;;;;;-0.20;99.90;;;;;;5113054;28;20514;-69
2022/12/15 08:11:15;;;;;;;7.90;2.03;;;;;;;;;;5111658;28;19920;-69
2022/12/15 08:13:42;;;;;;;8.13;1.92;;;0.20;99.90;;;;;;5112992;28;20048;-68
2022/12/15 08:16:09;;;;;;;12.10;2.50;;;;;;;;;;5112852;28;20104;-68
2022/12/15 08:18:35;;;;;;;;;;;;;;;;;;5112056;28;20509;-69
2022/12/15 08:21:05;;;;;;;7.50;2.00;;;-0.10;99.90;;;;;;5112749;28;20010;-69
2022/12/15 08:23:32;;;;;;;6.55;1.90;;;;;;;;;;5112688;28;20039;-69
2022/12/15 08:26:06;;;;;;;;;;;0.10;99.90;;;;;;5112793;28;20039;-69
2022/12/15 08:28:33;;;;;;;10.00;2.38;;;;;;;;;;5112649;28;19920;-69
2022/12/15 08:31:03;;;;;;;8.68;2.55;;;;;;;;;;5112458;28;20051;-70
2022/12/15 08:33:29;;;;;;;9.93;2.58;;;;;;;;;;5112522;28;20048;-68
2022/12/15 08:35:59;;;;;;;8.70;1.92;;;;;;;;;;5112561;28;20134;-69
2022/12/15 08:38:26;;;;;;;6.75;1.83;;;;;;;;;;5112069;28;20055;-69
2022/12/15 08:40:52;;;;;;;9.85;2.22;;;;;;;;;;5112190;28;20055;-69
2022/12/15 08:43:18;;;;;;;6.75;1.98;;;;;;;;;;5112391;28;20047;-69
2022/12/15 08:45:44;;;;;;;10.77;2.38;;;;;;;;;;5112386;28;20043;-68
2022/12/15 08:48:10;;;;;;;4.10;1.85;;;;;;;;;;5112281;28;20083;-69
2022/12/15 08:50:36;;;;;;;9.25;1.88;;;;;;;;;;5112281;28;20044;-69
2022/12/15 08:53:02;;;;;;;5.30;2.60;;;;;;;;;;5110682;28;20044;-69
2022/12/15 08:55:28;;;;;;;10.20;2.20;;;;;;;;;;5111987;28;20043;-69
2022/12/15 08:57:54;;;;;;;6.40;2.15;;;;;;;;;;5112316;28;20148;-69
2022/12/15 09:00:20;;;;;;;9.18;2.10;;;;;;;;;;5112189;28;20048;-69
2022/12/15 09:02:46;;;;;;;7.38;2.47;;;;;;;;;;5111975;28;20551;-71
2022/12/15 09:05:13;;;;;;;8.38;2.20;;;;;;;;;;5111141;28;20051;-69
2022/12/15 09:07:39;;;;;;;;;;;;;;;;;;5111527;28;20047;-69
2022/12/15 09:10:05;;;;;;;8.55;2.00;;;;;;;;;;5111741;28;20287;-70
2022/12/15 09:12:31;;;;;;;4.57;1.80;;;;;;;;;;5112058;28;20051;-69
2022/12/15 09:14:57;;;;;;;11.35;2.40;;;;;;;;;;5112089;28;20071;-71
2022/12/15 09:17:23;;;;;;;10.38;2.75;;;;;;;;;;5111027;28;20126;-70
2022/12/15 09:19:49;;;;;;;7.88;2.53;;;;;;;;;;5112018;28;20116;-70
2022/12/15 09:22:15;;;;;;;7.75;2.58;;;;;;;;;;5112076;28;20044;-70
2022/12/15 09:24:41;;;;;;;9.30;2.83;;;;;;;;;;5111722;28;20079;-70
2022/12/15 09:27:08;;;;;;;7.32;2.58;;;;;;;;;;5111958;28;20466;-69
2022/12/15 09:29:34;;;;;;;7.13;2.75;;;;;;;;;;5111746;28;20135;-71
2022/12/15 09:32:00;;;;;;;9.20;2.33;;;;;;;;;;5112003;28;20582;-73
2022/12/15 09:34:26;;;;;;;10.52;3.45;;;;;;;;;;5111973;28;20122;-71
2022/12/15 09:36:52;;;;;;;10.65;2.97;;;;;;;;;;5112046;28;20051;-71
2022/12/15 09:39:18;;;;;;;8.25;2.95;;;;;;;;;;5111751;28;20087;-71
2022/12/15 09:41:49;;;;;;;8.10;2.40;;;;;;;;;;5110927;28;20067;-73
2022/12/15 09:44:17;;;;;;;16.58;4.78;;;;;;;;;;5110544;28;20131;-71
2022/12/15 09:47:04;;;;;;;9.35;2.75;;;;;;;;;;5111827;28;20048;-71
2022/12/15 09:49:49;;;;;;;10.18;3.40;;;;;;;;;;5110519;28;20051;-71
2022/12/15 09:52:17;;;;;;;15.43;2.92;;;;;;;;;;5110725;28;20054;-71
2022/12/15 09:54:44;;;;;;;9.93;3.58;;;;;;;;;;5111508;28;20047;-70
2022/12/15 09:57:19;;;;;;;9.50;3.35;;;;;;;;;;5111607;28;20108;-71
2022/12/15 10:00:09;;;;;;;9.88;3.13;;;1.20;99.90;;;;;;5111812;28;20118;-71
2022/12/15 10:02:47;;;;;;;12.82;3.60;;;;;;;;;;5111827;28;20078;-76
2022/12/15 10:05:19;;;;;;;13.10;2.75;;;;;;;;;;5112923;28;20047;-71
2022/12/15 10:07:46;;;;;;;11.07;4.13;;;;;;;;;;5115226;28;20043;-75
2022/12/15 10:10:17;;;;;;;11.25;2.90;;;;;;;;;;5115208;28;20392;-72
2022/12/15 10:12:46;;;;;;;9.70;2.95;;;;;;;;;;5115244;28;20552;-72
2022/12/15 10:15:19;;;;;;;9.38;3.58;;;;;;;;;;5115140;28;20047;-72
2022/12/15 10:17:57;;;;;;;9.32;3.00;;;;;;;;;;5114024;28;20062;-75
2022/12/15 10:20:25;;;;;;;11.82;3.58;;;;;;;;;;5113778;28;20126;-74
2022/12/15 10:22:51;;;;;;;14.57;3.78;;;;;;;;;;5114666;28;20056;-74
2022/12/15 10:25:19;;;;;;;8.93;3.10;;;;;;;;;;5113997;28;20057;-74
2022/12/15 10:28:09;;;;;;;6.60;2.90;;;1.60;99.90;;;;;;5114982;28;20089;-74
2022/12/15 10:30:57;;;;;;;8.82;2.80;;;1.80;99.90;;;;;;5113478;28;20042;-74
2022/12/15 10:33:26;;;;;;;12.63;3.60;;;2.10;99.90;;;;;;5113508;28;20134;-74
2022/12/15 10:35:53;;;;;;;8.52;2.70;;;;;;;;;;5114494;28;20168;-80
2022/12/15 10:38:22;;;;;;;10.70;3.53;;;;;;;;;;5096294;28;20051;-75
2022/12/15 10:40:48;;;;;;;11.27;3.13;;;;;;;;;;5114701;28;20051;-75
2022/12/15 10:43:27;;;;;;;15.50;2.80;;;2.10;99.90;;;;;;5113535;28;20514;-75
2022/12/15 10:46:00;;;;;;;7.70;3.22;;;;;;;;;;5114629;28;20411;-76
2022/12/15 10:48:26;;;;;;;10.13;3.40;;;;;;;;;;5113392;28;20059;-77
2022/12/15 10:51:15;;;;;;;8.57;3.33;;;2.10;99.90;;;;;;5113817;28;20536;-77
2022/12/15 10:53:42;;;;;;;17.65;3.60;;;;;;;;;;5114401;28;20504;-78
2022/12/15 10:56:09;;;;;;;7.35;3.03;;;;;;;;;;5108335;28;20043;-78
2022/12/15 10:58:50;;;;;;;11.20;3.65;;;;;;;;;;5095073;28;20134;-79
2022/12/15 11:01:27;;;;;;;10.27;3.83;;;;;;;;;;5095542;28;20047;-78
2022/12/15 11:03:53;;;;;;;8.63;3.25;;;2.40;99.90;;;;;;5113276;28;20050;-78
2022/12/15 11:06:30;;;;;;;10.73;3.20;;;;;;;;;;5113113;28;20415;-78
2022/12/15 11:08:57;;;;;;;7.07;3.33;;;;;;;;;;5112359;28;20036;-78
2022/12/15 11:14:14;;;;;;;14.13;3.85;;;;;;;;;;5101837;28;20158;-73
2022/12/15 11:16:56;;;;;;;12.07;4.22;;;2.70;99.90;;;;;;5107264;28;20089;-74
2022/12/15 11:19:22;;;;;;;8.88;4.75;;;;;;;;;;5110445;27;20048;-79
2022/12/15 11:21:55;;;;;;;11.30;4.85;;;2.80;99.90;;;;;;5112567;28;20502;-78
2022/12/15 11:24:25;;;;;;;11.70;4.13;;;;;;;;;;5110665;28;20130;-79
2022/12/15 11:26:55;;;;;;;12.93;3.60;;;;;;;;;;5111175;28;20051;-78
2022/12/15 11:29:24;;;;;;;6.60;3.50;;;;;;;;;;5106787;28;20055;-80
2022/12/15 11:31:51;;;;;;;12.88;3.80;;;;;;;;;;5073747;28;20060;-78
2022/12/15 11:34:22;;;;;;;11.05;3.60;;;2.80;99.90;;;;;;5101104;28;20063;-78
2022/12/15 11:37:01;;;;;;;9.05;3.35;;;3.00;99.90;;;;;;5102242;28;20047;-81
2022/12/15 11:39:30;;;;;;;15.02;3.97;;;;;;;;;;5109115;28;20051;-74
2022/12/15 11:42:00;;;;;;;12.57;3.58;;;;;;;;;;5110157;28;20051;-78
2022/12/15 11:44:38;;;;;;;16.48;6.40;;;;;;;;;;5109798;28;20047;-78
2022/12/15 11:47:39;;;;;;;6.20;3.22;;;;;;;;;;5108384;28;20048;-81
2022/12/15 11:50:08;;;;;;;13.02;4.57;;;;;;;;;;5097137;28;20080;-79
2022/12/15 11:52:34;;;;;;;7.60;2.88;;;;;;;;;;5093221;28;20511;-80
2022/12/15 11:55:12;;;;;;;10.57;3.25;;;;;;;;;;5110642;28;20056;-76
2022/12/15 11:57:38;;;;;;;14.45;3.58;;;;;;;;;;5112226;28;20044;-76
2022/12/15 12:00:10;;;;;;;8.13;2.90;;;;;;;;;;5112177;28;20073;-79
2022/12/15 12:02:43;;;;;;;15.00;3.63;;;;;;;;;;5109569;28;20058;-76
2022/12/15 12:05:26;;;;;;;4.80;2.53;;;3.70;99.90;;;;;;5111016;28;20086;-78
2022/12/15 12:08:09;;;;;;;10.43;2.67;;;3.80;99.90;;;;;;5090344;28;20058;-77
2022/12/15 12:10:48;;;;;;;12.32;3.33;;;;;;;;;;5093609;28;20542;-77
2022/12/15 12:13:19;;;;;;;8.45;2.70;;;3.70;99.90;;;;;;5111121;28;20069;-76
2022/12/15 12:16:08;;;;;;;7.78;3.25;;;2.50;99.90;;;;;;5110335;28;20043;-81
2022/12/15 12:18:46;;;;;;;7.80;2.97;;;4.00;99.90;;;;;;5110795;28;20151;-77
2022/12/15 12:21:15;;;;;;;10.48;3.08;;;3.80;99.90;;;;;;5109569;28;20055;-76
2022/12/15 12:23:47;;;;;;;10.00;3.92;;;3.90;99.90;;;;;;5111942;28;20043;-75
2022/12/15 12:26:21;;;;;;;9.55;3.58;;;3.60;99.90;;;;;;5111555;28;20081;-75
2022/12/15 12:28:47;;;;;;;10.07;3.25;;;;;;;;;;5110886;28;20135;-76
2022/12/15 12:31:33;;;;;;;9.00;3.25;;;;;;;;;;5111370;28;20051;-76
2022/12/15 12:34:02;;;;;;;10.52;3.53;;;;;;;;;;5112392;28;20051;-76
2022/12/15 12:36:28;;;;;;;11.77;3.75;;;;;;;;;;5094521;28;20082;-75
2022/12/15 12:38:56;;;;;;;13.15;3.83;;;3.40;99.90;;;;;;5110974;28;20056;-76
2022/12/15 12:41:35;;;;;;;9.82;3.83;;;;;;;;;;5112356;28;20118;-77
2022/12/15 12:44:09;;;;;;;11.40;4.25;;;3.90;99.90;;;;;;5112488;28;20075;-76
2022/12/15 12:46:46;;;;;;;10.93;4.00;;;3.50;99.90;;;;;;5112146;28;20043;-76
2022/12/15 12:49:16;;;;;;;9.02;4.45;;;;;;;;;;5112410;28;20047;-76
2022/12/15 12:51:48;;;;;;;14.27;4.93;;;;;;;;;;5111378;28;20463;-76
2022/12/15 12:54:33;;;;;;;14.05;3.70;;;3.60;99.90;;;;;;5112386;28;20047;-75
2022/12/15 12:56:59;;;;;;;14.70;4.78;;;;;;;;;;5111209;28;20058;-76
2022/12/15 12:59:28;;;;;;;9.63;4.45;;;;;;;;;;5112205;28;20055;-77
2022/12/15 13:01:55;;;;;;;12.68;4.25;;;;;;;;;;5110887;28;20052;-76
2022/12/15 13:04:28;;;;;;;8.65;4.70;;;;;;;;;;5111158;28;20074;-75
2022/12/15 13:07:24;;;;;;;9.93;4.68;;;4.10;99.90;;;;;;5111103;28;20447;-76
2022/12/15 13:10:12;;;;;;;15.70;4.97;;;4.00;99.90;;;;;;5110955;28;20039;-76
2022/12/15 13:12:45;;;;;;;12.30;4.57;;;4.10;99.90;;;;;;5112164;28;20048;-77
2022/12/15 13:15:36;;;;;;;13.55;5.38;;;;;;;;;;5110654;28;20051;-76
2022/12/15 13:18:05;;;;;;;11.93;4.90;;;3.80;99.90;;;;;;5111174;28;20081;-76
2022/12/15 13:20:32;;;;;;;13.68;5.13;;;;;;;;;;5111064;28;20044;-75
2022/12/15 13:23:20;;;;;;;10.50;4.50;;;3.50;99.90;;;;;;5112069;28;20142;-77
2022/12/15 13:26:00;;;;;;;11.13;5.32;;;3.10;99.90;;;;;;5094077;28;20082;-75
2022/12/15 13:28:26;;;;;;;12.25;4.78;;;;;;;;;;5112257;28;20075;-77
2022/12/15 13:31:12;;;;;;;11.88;5.13;;;;;;;;;;5111652;28;20050;-76
2022/12/15 13:33:51;;;;;;;12.35;4.68;;;;;;;;;;5111962;28;20051;-77
2022/12/15 13:36:35;;;;;;;9.23;4.93;;;3.00;99.90;;;;;;5110857;28;20148;-76
2022/12/15 13:39:23;;;;;;;10.82;4.72;;;2.90;99.90;;;;;;5111338;28;20052;-77
2022/12/15 13:41:50;;;;;;;17.30;5.70;;;2.80;99.90;;;;;;5115693;28;20047;-78
2022/12/15 13:44:38;;;;;;;13.90;5.68;;;3.00;99.90;;;;;;5115782;28;20055;-76
2022/12/15 13:47:09;;;;;;;16.73;6.07;;;;;;;;;;5115281;27;20039;-76
2022/12/15 13:49:43;;;;;;;13.50;6.00;;;;;;;;;;5114347;28;20365;-76
2022/12/15 13:52:25;;;;;;;14.75;6.28;;;3.00;99.90;;;;;;5114831;28;20055;-76
2022/12/15 13:54:58;;;;;;;18.48;6.43;;;3.00;99.90;;;;;;5114667;28;20039;-75
2022/12/15 13:57:25;;;;;;;16.88;6.20;;;;;;;;;;5115506;28;20400;-80
2022/12/15 13:59:52;;;;;;;;;;;3.00;99.90;;;;;;5114600;28;20052;-75
2022/12/15 14:02:35;;;;;;;16.58;6.65;;;;;;;;;;5114201;28;19985;-78
2022/12/15 14:05:21;;;;;;;15.02;6.38;;;2.80;99.90;;;;;;5114265;28;20059;-76
2022/12/15 14:07:54;;;;;;;9.88;5.65;;;2.60;99.90;;;;;;5114267;28;20395;-75
2022/12/15 14:10:35;;;;;;;12.98;6.18;;;2.50;99.90;;;;;;5113368;28;20047;-76
2022/12/15 14:13:25;;;;;;;18.35;5.65;;;2.70;99.90;;;;;;5114211;28;20079;-76
2022/12/15 14:16:06;;;;;;;10.70;6.20;;;2.50;99.90;;;;;;5115139;28;20054;-76
2022/12/15 14:18:36;;;;;;;11.48;5.82;;;;;;;;;;5114031;28;20057;-76
2022/12/15 14:21:05;;;;;;;17.17;6.00;;;;;;;;;;5113925;28;20051;-76
2022/12/15 14:23:44;;;;;;;15.07;5.65;;;;;;;;;;5113866;28;20050;-76
2022/12/15 14:26:12;;;;;;;9.93;5.20;;;;;;;;;;5113608;28;20055;-76
2022/12/15 14:28:44;;;;;;;17.13;5.45;;;2.50;99.90;;;;;;5096509;28;20062;-76
2022/12/15 14:31:20;;;;;;;15.70;5.07;;;;;;;;;;5096618;28;20043;-76
2022/12/15 14:33:49;;;;;;;18.50;5.65;;;2.50;99.90;;;;;;5113800;28;20276;-76
2022/12/15 14:36:17;;;;;;;11.32;4.68;;;;;;;;;;5114389;28;20525;-77
2022/12/15 14:38:52;;;;;;;15.63;5.05;;;;;;;;;;5114576;28;20098;-78
2022/12/15 14:41:24;;;;;;;17.33;4.57;;;3.00;99.90;;;;;;5113569;28;20060;-76
2022/12/15 14:43:52;;;;;;;8.98;4.05;;;2.30;99.90;;;;;;5114365;27;20086;-76
2022/12/15 14:46:21;;;;;;;11.13;5.32;;;;;;;;;;5113461;28;20135;-78
2022/12/15 14:49:01;;;;;;;8.60;3.20;;;;;;;;;;5114582;28;20104;-77
2022/12/15 14:51:28;;;;;;;8.93;3.80;;;;;;;;;;5112237;28;20079;-77
2022/12/15 14:53:54;;;;;;;8.75;2.90;;;;;;;;;;5113374;28;20055;-77
2022/12/15 14:56:20;;;;;;;6.00;2.95;;;;;;;;;;5113070;28;20047;-77
2022/12/15 14:59:14;;;;;;;10.13;3.83;;;2.60;99.90;;;;;;5096027;28;20484;-78
2022/12/15 15:01:49;;;;;;;9.18;3.38;;;;;;;;;;5129795;27;20048;-77
2022/12/15 15:04:32;;;;;;;9.80;3.40;;;;;;;;;;5114035;28;20039;-77
2022/12/15 15:07:02;;;;;;;6.40;2.70;;;;;;;;;;5093683;28;20110;-79
2022/12/15 15:09:30;;;;;;;7.97;2.80;;;2.40;99.90;;;;;;5093328;28;20488;-78
2022/12/15 15:12:00;;;;;;;8.07;3.50;;;;;;;;;;5093388;28;20476;-78
2022/12/15 15:14:29;;;;;;;5.18;2.40;;;2.20;99.90;;;;;;5093566;28;20089;-77
2022/12/15 15:17:01;;;;;;;6.03;2.58;;;;;;;;;;5092550;28;20396;-79
2022/12/15 15:19:27;;;;;;;8.27;2.97;;;;;;;;;;5092462;28;20108;-76
2022/12/15 15:21:53;;;;;;;5.30;2.83;;;;;;;;;;5105965;28;20047;-76
2022/12/15 15:24:22;;;;;;;7.53;3.42;;;;;;;;;;5091578;28;20142;-76
2022/12/15 15:26:48;;;;;;;7.55;3.72;;;;;;;;;;5110860;28;20051;-75
2022/12/15 15:29:37;;;;;;;12.75;4.57;;;1.90;99.90;;;;;;5111854;28;20518;-79
2022/12/15 15:32:14;;;;;;;12.65;5.07;;;;;;;;;;5111252;28;20043;-74
2022/12/15 15:34:40;;;;;;;16.08;6.15;;;;;;;;;;5107097;28;20055;-75
2022/12/15 15:37:12;;;;;;;15.80;5.70;;;;;;;;;;5110992;28;20047;-76
2022/12/15 15:39:38;;;;;;;16.10;5.50;;;;;;;;;;5112117;28;20381;-75
2022/12/15 15:42:10;;;;;;;19.02;6.28;;;;;;;;;;5111602;28;20104;-80
2022/12/15 15:44:36;;;;;;;17.40;6.03;;;;;;;;;;5110623;28;20048;-76
2022/12/15 15:47:02;;;;;;;17.92;6.63;;;;;;;;;;5111043;28;20048;-74
2022/12/15 15:49:28;;;;;;;15.13;5.05;;;;;;;;;;5111611;28;20039;-80
2022/12/15 15:51:55;;;;;;;16.30;6.03;;;;;;;;;;5110871;28;20059;-82
2022/12/15 15:54:27;;;;;;;11.13;5.15;;;;;;;;;;5110846;28;20051;-82
2022/12/15 15:56:53;;;;;;;13.20;6.35;;;1.10;99.90;;;;;;5110612;28;20055;-83
2022/12/15 15:59:20;;;;;;;14.05;5.70;;;;;;;;;;5093691;28;20040;-77
2022/12/15 16:01:51;;;;;;;12.85;6.20;;;;;;;;;;5110436;28;20438;-80
2022/12/15 16:04:17;;;;;;;19.63;7.40;;;;;;;;;;5110648;28;20051;-79
2022/12/15 16:06:43;;;;;;;15.88;6.28;;;;;;;;;;5106191;28;20039;-79
2022/12/15 16:09:12;;;;;;;12.00;6.55;;;1.30;99.90;;;;;;5096958;28;20063;-79
2022/12/15 16:11:38;;;;;;;17.00;7.00;;;;;;;;;;5107491;28;20097;-80
2022/12/15 16:14:09;;;;;;;19.02;7.50;;;;;;;;;;5100540;28;20051;-79
2022/12/15 16:16:38;;;;;;;12.30;7.28;;;;;;;;;;5107423;28;20051;-77
2022/12/15 16:19:04;;;;;;;15.95;8.32;;;;;;;;;;5109941;28;20051;-78
2022/12/15 16:21:30;;;;;;;16.40;9.05;;;;;;;;;;5103558;28;20079;-76
2022/12/15 16:23:57;;;;;;;19.38;8.98;;;;;;;;;;5101230;28;20255;-78
2022/12/15 16:26:29;;;;;;;21.63;8.45;;;1.30;99.90;;;;;;5109607;28;20066;-75
2022/12/15 16:28:55;;;;;;;18.73;8.73;;;;;;;;;;5110155;28;20568;-74
2022/12/15 16:31:30;;;;;;;22.13;9.73;;;;;;;;;;5110287;28;20071;-78
2022/12/15 16:33:57;;;;;;;20.88;9.32;;;;;;;;;;5112315;28;20048;-82
2022/12/15 16:36:23;;;;;;;;;;;;;;;;;;5107240;28;20047;-72
2022/12/15 16:38:49;;;;;;;22.48;8.73;;;;;;;;;;5110842;28;19926;-80
2022/12/15 16:41:15;;;;;;;;;;;;;;;;;;5110173;28;20047;-80
2022/12/15 16:43:41;;;;;;;15.60;8.48;;;1.50;99.90;;;;;;5109366;28;19931;-80
2022/12/15 16:46:10;;;;;;;22.13;9.43;;;;;;;;;;5094494;28;20401;-80
2022/12/15 16:48:36;;;;;;;24.35;9.40;;;;;;;;;;5090968;28;20478;-81
2022/12/15 16:51:05;;;;;;;18.95;9.82;;;;;;;;;;5091922;28;20365;-80
2022/12/15 16:53:33;;;;;;;28.35;10.70;;;;;;;;;;5090174;28;20481;-80